Ludlow, Pennsylvania
Current Conditions -  °F | °C
As of 8:53 AM on Saturday 22 Nov 2014 (Local Time) from KBFD Reporting Station
Overcast Overcast  
Wind Chill: 16°   Ceiling: 4600
Heat Index: 24°   Visibility: 10mi
Dew Point:   Wind: 7mph
Humidity: 46%   Direction: 210°SSW
Pressure: 30.23"   Gusts: NA
Location:  41.73°N, 78.94°W
Report Text: KBFD 221353Z AUTO 21006KT 10SM OVC046 M04/M14 A3023 RMK AO2 SLP270 T10441144
Loading
Personal Weather Stations






























Interactive Weather Map New forecast layout! Learn more

10-Day Weather Forecast

Advertisements
Track Severe Weather on mobile